Terminal Aerodrome Forecast
Issued by NWS Cleveland, OH

Home | Current Version | Previous Version | Graphics & Text | Print | Product List | Glossary On
Versions: 1 2 3 4 5 6 7 8 9 10 11 12 13 14
000
FTUS41 KCLE 021720
TAFTOL
TAF
KTOL 021720Z 0218/0318 07012KT P6SM FEW035
     FM030200 06004KT P6SM SKC
      TEMPO 0309/0312 5SM BR
     FM031500 09006KT P6SM SCT025=

USA.gov is the U.S. government's official web portal to all federal, state and local government web resources and services.